Time;durP1;ratioP1;P1;durP2;ratioP2;P2;SDS_P1;SDS_P2;PMS_P1;PMS_P2;Temp;Humidity;BMP_temperature;BMP_pressure;BME280_temperature;BME280_humidity;BME280_pressure;Samples;Min_cycle;Max_cycle;Signal;HPM_P1;HPM_P2
2022/08/26 00:04:46;;;;;;;4.37;2.50;;;18.30;99.90;;;;;;20909049;28;20040;-77
2022/08/26 00:14:47;;;;;;;4.23;2.63;;;18.10;99.90;;;;;;20908695;28;20486;-77
2022/08/26 00:24:48;;;;;;;2.87;2.40;;;17.80;99.90;;;;;;20906867;28;20053;-76
2022/08/26 00:34:48;;;;;;;7.07;2.70;;;17.40;99.90;;;;;;20773097;28;20108;-77
2022/08/26 00:44:49;;;;;;;3.50;3.00;;;17.40;99.90;;;;;;20742913;28;20034;-77
2022/08/26 00:55:01;;;;;;;9.20;2.80;;;17.50;99.90;;;;;;20742720;28;20032;-76
2022/08/26 01:05:04;;;;;;;4.10;2.47;;;17.40;99.90;;;;;;20742254;28;20041;-77
2022/08/26 01:15:06;;;;;;;3.88;2.63;;;17.10;99.90;;;;;;20741883;28;20029;-77
2022/08/26 01:25:07;;;;;;;5.63;3.22;;;17.30;99.90;;;;;;20741452;28;20061;-76
2022/08/26 01:35:08;;;;;;;4.63;3.23;;;17.20;99.90;;;;;;20744353;28;20030;-76
2022/08/26 01:45:14;;;;;;;4.07;3.27;;;16.90;99.90;;;;;;20755680;28;20029;-76
2022/08/26 01:55:17;;;;;;;3.88;3.03;;;16.70;99.90;;;;;;20787255;28;20033;-75
2022/08/26 02:05:20;;;;;;;4.90;3.38;;;16.80;99.90;;;;;;20779957;28;20557;-77
2022/08/26 02:15:21;;;;;;;4.45;3.10;;;16.60;99.90;;;;;;20801149;28;20049;-77
2022/08/26 02:25:49;;;;;;;4.87;3.43;;;16.60;99.90;;;;;;20770570;28;20044;-76
2022/08/26 02:35:50;;;;;;;4.57;3.65;;;16.60;99.90;;;;;;20816164;28;20079;-77
2022/08/26 02:45:51;;;;;;;5.57;3.43;;;16.40;99.90;;;;;;20788098;28;20404;-76
2022/08/26 02:55:52;;;;;;;5.47;4.03;;;16.20;99.90;;;;;;20830204;28;20380;-76
2022/08/26 03:05:53;;;;;;;6.43;4.40;;;16.10;99.90;;;;;;20844817;28;20025;-77
2022/08/26 03:15:54;;;;;;;6.10;3.90;;;15.80;99.90;;;;;;20830836;28;20033;-76
2022/08/26 03:25:54;;;;;;;8.23;3.90;;;16.00;99.90;;;;;;20829695;28;20040;-76
2022/08/26 03:35:55;;;;;;;6.43;4.00;;;16.00;99.90;;;;;;20822771;28;20498;-77
2022/08/26 03:45:56;;;;;;;6.27;3.83;;;16.10;99.90;;;;;;20823026;28;20090;-77
2022/08/26 03:55:57;;;;;;;5.07;3.57;;;15.90;99.90;;;;;;20744381;28;20670;-77
2022/08/26 04:05:57;;;;;;;4.87;3.63;;;15.60;99.90;;;;;;20754556;28;20040;-76
2022/08/26 04:15:58;;;;;;;5.77;3.47;;;15.70;99.90;;;;;;20826093;28;20395;-76
2022/08/26 04:26:00;;;;;;;6.37;4.03;;;15.70;99.90;;;;;;20825310;28;20038;-76
2022/08/26 04:36:02;;;;;;;;;;;15.70;99.90;;;;;;20825534;28;20033;-76
2022/08/26 04:46:04;;;;;;;5.80;4.22;;;15.70;99.90;;;;;;20824272;28;20494;-76
2022/08/26 04:56:05;;;;;;;6.47;4.63;;;15.40;99.90;;;;;;20835108;28;20029;-77
2022/08/26 05:06:07;;;;;;;6.00;4.53;;;15.30;99.90;;;;;;20824062;28;20036;-75
2022/08/26 05:16:10;;;;;;;8.57;4.03;;;15.30;99.90;;;;;;20837844;28;20029;-75
2022/08/26 05:26:11;;;;;;;7.10;4.30;;;15.50;99.90;;;;;;20840783;28;20292;-77
2022/08/26 05:36:16;;;;;;;11.20;7.17;;;15.80;99.90;;;;;;20809186;28;20483;-77
2022/08/26 05:46:17;;;;;;;12.15;5.68;;;16.30;99.90;;;;;;20836213;23;20080;-77
2022/08/26 05:56:20;;;;;;;7.53;5.55;;;16.70;99.90;;;;;;20873647;28;20048;-77
2022/08/26 06:06:35;;;;;;;9.75;4.72;;;17.30;99.90;;;;;;20875354;28;20437;-77
2022/08/26 06:16:39;;;;;;;10.32;5.65;;;18.00;99.90;;;;;;20880815;28;20055;-76
2022/08/26 06:26:42;;;;;;;16.05;10.13;;;18.70;99.90;;;;;;20889843;28;20028;-76
2022/08/26 06:36:43;;;;;;;6.00;4.70;;;19.00;99.90;;;;;;20860005;28;20041;-77
2022/08/26 06:46:44;;;;;;;7.45;4.80;;;19.80;99.90;;;;;;20855956;28;20067;-78
2022/08/26 06:56:45;;;;;;;10.97;5.13;;;20.40;99.90;;;;;;20868800;28;20468;-77
2022/08/26 07:06:48;;;;;;;5.10;4.57;;;21.00;99.90;;;;;;20880873;28;20028;-78
2022/08/26 07:16:49;;;;;;;6.72;4.35;;;21.80;99.90;;;;;;20907319;28;20083;-77
2022/08/26 07:26:50;;;;;;;4.82;3.80;;;22.70;99.90;;;;;;20928468;28;20044;-77
2022/08/26 07:36:51;;;;;;;7.23;4.33;;;22.40;99.90;;;;;;20926041;28;20108;-78
2022/08/26 07:46:52;;;;;;;7.40;4.13;;;22.50;99.90;;;;;;20910779;28;20502;-75
2022/08/26 07:56:53;;;;;;;5.68;4.57;;;22.90;99.90;;;;;;20910011;28;20039;-76
2022/08/26 08:06:55;;;;;;;5.47;3.78;;;22.50;99.90;;;;;;20857978;28;20412;-76
2022/08/26 08:16:55;;;;;;;;;;;22.60;99.90;;;;;;20900654;28;20033;-76
2022/08/26 08:26:57;;;;;;;4.50;3.23;;;23.00;99.90;;;;;;20892248;28;19967;-76
2022/08/26 08:36:58;;;;;;;5.82;3.22;;;23.30;99.90;;;;;;20929486;28;20033;-77
2022/08/26 08:47:04;;;;;;;4.37;2.70;;;23.70;99.90;;;;;;20931760;28;20108;-77
2022/08/26 08:57:23;;;;;;;3.53;2.63;;;23.90;99.90;;;;;;20942395;28;20031;-77
2022/08/26 09:07:35;;;;;;;5.82;2.65;;;24.10;99.90;;;;;;20939979;28;20048;-78
2022/08/26 09:17:38;;;;;;;3.90;2.40;;;24.40;99.90;;;;;;20938346;28;20028;-77
2022/08/26 09:27:46;;;;;;;8.38;2.20;;;24.60;99.90;;;;;;20937286;28;20445;-78
2022/08/26 09:37:48;;;;;;;11.65;2.17;;;25.00;99.90;;;;;;20871708;28;20043;-78
2022/08/26 09:47:54;;;;;;;7.72;2.78;;;25.50;99.90;;;;;;20907840;28;20395;-77
2022/08/26 09:57:55;;;;;;;4.90;2.85;;;25.30;99.90;;;;;;20913346;28;20518;-78
2022/08/26 10:07:57;;;;;;;7.85;2.28;;;25.50;99.90;;;;;;20874657;28;20032;-77
2022/08/26 10:18:05;;;;;;;8.35;2.47;;;26.30;99.90;;;;;;20849490;28;20040;-75
2022/08/26 10:28:35;;;;;;;6.35;2.63;;;26.70;99.90;;;;;;20827792;28;20112;-76
2022/08/26 10:38:39;;;;;;;5.75;2.72;;;27.10;99.90;;;;;;20828588;28;20033;-75
2022/08/26 10:48:46;;;;;;;5.15;2.33;;;28.20;99.90;;;;;;20815748;28;20491;-77
2022/08/26 10:59:11;;;;;;;6.95;2.42;;;27.90;99.90;;;;;;20848235;28;20064;-76
2022/08/26 11:09:45;;;;;;;6.47;2.58;;;28.00;99.90;;;;;;20857979;28;20495;-76
2022/08/26 11:19:52;;;;;;;4.75;2.47;;;28.00;99.90;;;;;;20864724;28;20049;-76
2022/08/26 11:30:00;;;;;;;4.95;2.40;;;27.50;99.90;;;;;;20832311;28;20037;-75
2022/08/26 11:40:06;;;;;;;4.57;2.72;;;27.20;99.90;;;;;;20828654;28;20095;-75
2022/08/26 11:50:24;;;;;;;6.13;2.55;;;27.50;99.90;;;;;;20823594;28;20021;-75
2022/08/26 12:00:30;;;;;;;7.75;3.13;;;27.50;99.90;;;;;;20822439;28;20026;-75
2022/08/26 12:10:33;;;;;;;12.07;3.08;;;27.60;99.90;;;;;;20823341;28;20041;-75
2022/08/26 12:20:47;;;;;;;4.75;2.70;;;28.60;99.90;;;;;;20810862;28;20159;-75
2022/08/26 12:31:03;;;;;;;4.85;2.75;;;29.70;99.90;;;;;;20798087;28;20037;-75
2022/08/26 12:41:04;;;;;;;6.57;2.45;;;29.90;99.90;;;;;;20825887;28;20496;-76
2022/08/26 12:51:20;;;;;;;3.30;2.40;;;30.10;99.90;;;;;;20803751;28;20026;-75
2022/08/26 13:01:22;;;;;;;6.70;2.75;;;30.50;99.90;;;;;;20824455;28;20132;-75
2022/08/26 13:11:30;;;;;;;7.30;2.47;;;30.80;99.90;;;;;;20745016;28;20037;-76
2022/08/26 13:21:34;;;;;;;5.97;3.15;;;30.70;99.90;;;;;;20759219;28;20059;-75
2022/08/26 13:31:40;;;;;;;4.80;3.17;;;30.00;99.90;;;;;;20909718;28;20025;-74
2022/08/26 13:41:42;;;;;;;9.98;3.22;;;30.40;99.90;;;;;;20755965;28;20096;-75
2022/08/26 13:51:43;;;;;;;7.63;3.42;;;30.50;99.90;;;;;;20751544;28;20551;-75
2022/08/26 14:01:43;;;;;;;7.00;3.78;;;31.20;99.90;;;;;;20795184;28;20075;-74
2022/08/26 14:11:44;;;;;;;9.07;3.17;;;29.40;99.90;;;;;;20831845;28;20057;-74
2022/08/26 14:21:45;;;;;;;7.72;3.88;;;29.70;99.90;;;;;;20832630;28;20030;-73
2022/08/26 14:31:47;;;;;;;6.97;3.10;;;29.20;99.90;;;;;;20831917;28;20028;-75
2022/08/26 14:41:52;;;;;;;5.88;3.85;;;28.50;99.90;;;;;;20830584;28;20037;-75
2022/08/26 15:39:02;;;;;;;6.40;4.55;;;26.40;99.90;;;;;;20252402;28;20054;-75
2022/08/26 17:54:23;;;;;;;2.42;1.98;;;23.70;99.90;;;;;;20922214;22;20060;-77
2022/08/26 18:04:24;;;;;;;3.17;2.10;;;23.50;99.90;;;;;;20926073;28;20040;-77
2022/08/26 18:14:25;;;;;;;3.03;2.17;;;23.30;99.90;;;;;;20926682;28;20095;-79
2022/08/26 18:24:29;;;;;;;4.97;2.75;;;22.90;99.90;;;;;;20909083;28;20378;-78
2022/08/26 18:34:29;;;;;;;3.72;2.92;;;22.90;99.90;;;;;;20906353;28;20052;-78
2022/08/26 18:44:30;;;;;;;2.63;2.33;;;22.70;99.90;;;;;;20921439;28;20041;-76
2022/08/26 18:54:32;;;;;;;4.40;2.55;;;22.50;99.90;;;;;;20913404;28;20091;-77
2022/08/26 19:04:32;;;;;;;4.32;3.00;;;22.50;99.90;;;;;;20915282;28;20041;-77
2022/08/26 19:14:34;;;;;;;3.53;2.93;;;22.10;99.90;;;;;;20895884;28;20056;-76
2022/08/26 19:24:35;;;;;;;6.25;3.00;;;21.90;99.90;;;;;;20912132;28;20455;-77
2022/08/26 19:34:36;;;;;;;6.83;2.60;;;21.80;99.90;;;;;;20911712;28;20037;-76
2022/08/26 19:54:57;;;;;;;6.47;3.03;;;21.70;99.90;;;;;;20905098;28;20044;-77
2022/08/26 20:04:58;;;;;;;5.32;2.88;;;21.70;99.90;;;;;;20909755;28;20037;-77
2022/08/26 20:14:59;;;;;;;6.53;2.93;;;21.60;99.90;;;;;;20914090;28;20031;-77
2022/08/26 20:25:00;;;;;;;;;;;21.40;99.90;;;;;;20914159;28;20029;-76
2022/08/26 20:35:02;;;;;;;6.72;2.38;;;21.30;99.90;;;;;;20915635;28;19915;-78
2022/08/26 20:45:04;;;;;;;5.72;2.80;;;21.30;99.90;;;;;;20897301;28;20040;-77
2022/08/26 20:55:05;;;;;;;5.22;3.00;;;21.00;99.90;;;;;;20917074;28;20491;-77
2022/08/26 21:05:07;;;;;;;12.27;3.90;;;21.20;99.90;;;;;;20921962;28;20043;-79
2022/08/26 21:15:11;;;;;;;9.05;3.85;;;20.70;99.90;;;;;;20908003;28;20037;-77
2022/08/26 21:25:16;;;;;;;5.10;3.97;;;20.00;99.90;;;;;;20910441;28;20040;-78
2022/08/26 21:35:17;;;;;;;6.95;4.00;;;19.70;99.90;;;;;;20907273;28;20082;-77
2022/08/26 21:45:18;;;;;;;8.20;4.00;;;19.90;99.90;;;;;;20922751;28;20045;-79
2022/08/26 21:55:19;;;;;;;10.55;4.50;;;20.00;99.90;;;;;;20905179;28;20903;-78
2022/08/26 22:05:19;;;;;;;9.30;4.77;;;19.70;99.90;;;;;;20928765;28;20123;-79
2022/08/26 22:15:24;;;;;;;9.73;4.93;;;19.40;99.90;;;;;;20917876;28;20403;-77
2022/08/26 22:25:26;;;;;;;6.95;4.90;;;19.40;99.90;;;;;;20919225;28;20040;-79
2022/08/26 22:35:27;;;;;;;8.55;4.65;;;19.40;99.90;;;;;;20936175;28;20047;-79
2022/08/26 22:45:30;;;;;;;8.55;4.18;;;19.40;99.90;;;;;;20915878;28;20495;-79
2022/08/26 22:55:31;;;;;;;6.50;4.68;;;19.50;99.90;;;;;;20929228;28;20044;-78
2022/08/26 23:05:32;;;;;;;10.87;5.50;;;19.50;99.90;;;;;;20931618;28;20178;-79
2022/08/26 23:15:34;;;;;;;8.10;5.60;;;19.10;99.90;;;;;;20938797;28;20085;-77
2022/08/26 23:25:35;;;;;;;9.27;6.07;;;18.90;99.90;;;;;;20911715;28;20044;-77
2022/08/26 23:35:36;;;;;;;7.90;5.47;;;19.20;99.90;;;;;;20926601;28;20045;-77
2022/08/26 23:45:37;;;;;;;7.93;5.17;;;19.10;99.90;;;;;;20945846;22;20496;-80
2022/08/26 23:55:38;;;;;;;10.10;7.03;;;18.90;99.90;;;;;;20930465;28;20048;-78
